sensor_id;sensor_type;location;lat;lon;timestamp;P1;durP1;ratioP1;P2;durP2;ratioP2
5391;SDS011;2719;53.624;9.786;2023-02-28T00:00:36;4.60;;;1.70;;
5391;SDS011;2719;53.624;9.786;2023-02-28T00:03:03;3.33;;;1.50;;
5391;SDS011;2719;53.624;9.786;2023-02-28T00:05:30;5.17;;;1.57;;
5391;SDS011;2719;53.624;9.786;2023-02-28T00:07:57;5.70;;;1.83;;
5391;SDS011;2719;53.624;9.786;2023-02-28T00:10:25;5.80;;;1.57;;
5391;SDS011;2719;53.624;9.786;2023-02-28T00:12:55;7.17;;;1.70;;
5391;SDS011;2719;53.624;9.786;2023-02-28T00:15:26;4.13;;;1.53;;
5391;SDS011;2719;53.624;9.786;2023-02-28T00:17:52;5.17;;;2.33;;
5391;SDS011;2719;53.624;9.786;2023-02-28T00:20:19;4.30;;;1.27;;
5391;SDS011;2719;53.624;9.786;2023-02-28T00:22:47;4.10;;;1.70;;
5391;SDS011;2719;53.624;9.786;2023-02-28T00:25:15;5.20;;;1.27;;
5391;SDS011;2719;53.624;9.786;2023-02-28T00:27:44;4.70;;;1.33;;
5391;SDS011;2719;53.624;9.786;2023-02-28T00:30:13;4.40;;;1.63;;
5391;SDS011;2719;53.624;9.786;2023-02-28T00:32:41;5.67;;;2.20;;
5391;SDS011;2719;53.624;9.786;2023-02-28T00:35:09;6.10;;;1.57;;
5391;SDS011;2719;53.624;9.786;2023-02-28T00:37:36;8.20;;;2.07;;
5391;SDS011;2719;53.624;9.786;2023-02-28T00:40:03;10.50;;;1.50;;
5391;SDS011;2719;53.624;9.786;2023-02-28T00:42:32;6.07;;;2.10;;
5391;SDS011;2719;53.624;9.786;2023-02-28T00:44:59;7.40;;;1.57;;
5391;SDS011;2719;53.624;9.786;2023-02-28T00:47:27;6.03;;;1.23;;
5391;SDS011;2719;53.624;9.786;2023-02-28T00:49:53;3.03;;;1.30;;
5391;SDS011;2719;53.624;9.786;2023-02-28T00:52:20;3.47;;;1.80;;
5391;SDS011;2719;53.624;9.786;2023-02-28T00:54:47;4.20;;;1.20;;
5391;SDS011;2719;53.624;9.786;2023-02-28T00:57:14;1.97;;;0.90;;
5391;SDS011;2719;53.624;9.786;2023-02-28T00:59:40;3.33;;;1.33;;
5391;SDS011;2719;53.624;9.786;2023-02-28T01:02:07;4.03;;;1.33;;
5391;SDS011;2719;53.624;9.786;2023-02-28T01:04:35;2.33;;;1.10;;
5391;SDS011;2719;53.624;9.786;2023-02-28T01:07:02;5.27;;;1.27;;
5391;SDS011;2719;53.624;9.786;2023-02-28T01:09:28;6.60;;;1.73;;
5391;SDS011;2719;53.624;9.786;2023-02-28T01:11:55;3.63;;;1.37;;
5391;SDS011;2719;53.624;9.786;2023-02-28T01:14:22;5.67;;;2.13;;
5391;SDS011;2719;53.624;9.786;2023-02-28T01:16:49;4.97;;;1.13;;
5391;SDS011;2719;53.624;9.786;2023-02-28T01:19:16;4.00;;;1.47;;
5391;SDS011;2719;53.624;9.786;2023-02-28T01:21:44;8.57;;;2.00;;
5391;SDS011;2719;53.624;9.786;2023-02-28T01:24:11;3.23;;;1.37;;
5391;SDS011;2719;53.624;9.786;2023-02-28T01:26:37;4.00;;;1.20;;
5391;SDS011;2719;53.624;9.786;2023-02-28T01:29:04;5.80;;;1.23;;
5391;SDS011;2719;53.624;9.786;2023-02-28T01:31:31;6.23;;;1.47;;
5391;SDS011;2719;53.624;9.786;2023-02-28T01:33:57;5.40;;;1.60;;
5391;SDS011;2719;53.624;9.786;2023-02-28T01:36:24;10.13;;;1.70;;
5391;SDS011;2719;53.624;9.786;2023-02-28T01:38:53;4.93;;;1.60;;
5391;SDS011;2719;53.624;9.786;2023-02-28T01:41:20;3.23;;;1.43;;
5391;SDS011;2719;53.624;9.786;2023-02-28T01:43:56;2.67;;;1.30;;
5391;SDS011;2719;53.624;9.786;2023-02-28T01:46:24;2.67;;;1.10;;
5391;SDS011;2719;53.624;9.786;2023-02-28T01:48:51;5.57;;;1.53;;
5391;SDS011;2719;53.624;9.786;2023-02-28T01:51:23;6.27;;;1.87;;
5391;SDS011;2719;53.624;9.786;2023-02-28T01:53:56;4.83;;;1.20;;
5391;SDS011;2719;53.624;9.786;2023-02-28T01:56:27;4.07;;;1.87;;
5391;SDS011;2719;53.624;9.786;2023-02-28T01:58:56;5.63;;;1.67;;
5391;SDS011;2719;53.624;9.786;2023-02-28T02:01:23;2.60;;;1.47;;
5391;SDS011;2719;53.624;9.786;2023-02-28T02:03:53;5.07;;;1.13;;
5391;SDS011;2719;53.624;9.786;2023-02-28T02:06:22;7.73;;;1.30;;
5391;SDS011;2719;53.624;9.786;2023-02-28T02:08:50;7.30;;;2.07;;
5391;SDS011;2719;53.624;9.786;2023-02-28T02:11:19;6.13;;;1.93;;
5391;SDS011;2719;53.624;9.786;2023-02-28T02:13:55;4.33;;;1.63;;
5391;SDS011;2719;53.624;9.786;2023-02-28T02:16:44;2.40;;;1.03;;
5391;SDS011;2719;53.624;9.786;2023-02-28T02:19:28;1.63;;;1.20;;
5391;SDS011;2719;53.624;9.786;2023-02-28T02:22:12;10.50;;;1.87;;
5391;SDS011;2719;53.624;9.786;2023-02-28T02:27:50;4.20;;;1.80;;
5391;SDS011;2719;53.624;9.786;2023-02-28T02:36:47;5.57;;;1.70;;
5391;SDS011;2719;53.624;9.786;2023-02-28T02:39:18;11.97;;;2.57;;
5391;SDS011;2719;53.624;9.786;2023-02-28T02:41:51;5.77;;;1.57;;
5391;SDS011;2719;53.624;9.786;2023-02-28T02:44:20;5.53;;;1.93;;
5391;SDS011;2719;53.624;9.786;2023-02-28T02:46:50;7.03;;;1.60;;
5391;SDS011;2719;53.624;9.786;2023-02-28T02:49:22;5.30;;;1.50;;
5391;SDS011;2719;53.624;9.786;2023-02-28T02:51:52;3.40;;;1.73;;
5391;SDS011;2719;53.624;9.786;2023-02-28T02:54:21;3.37;;;1.40;;
5391;SDS011;2719;53.624;9.786;2023-02-28T02:56:53;5.40;;;1.10;;
5391;SDS011;2719;53.624;9.786;2023-02-28T02:59:24;2.67;;;1.60;;
5391;SDS011;2719;53.624;9.786;2023-02-28T03:01:52;4.27;;;1.10;;
5391;SDS011;2719;53.624;9.786;2023-02-28T03:04:24;6.47;;;2.27;;
5391;SDS011;2719;53.624;9.786;2023-02-28T03:06:56;2.83;;;1.17;;
5391;SDS011;2719;53.624;9.786;2023-02-28T03:09:23;3.50;;;1.30;;
5391;SDS011;2719;53.624;9.786;2023-02-28T03:11:52;4.50;;;1.50;;
5391;SDS011;2719;53.624;9.786;2023-02-28T03:14:25;6.70;;;1.23;;
5391;SDS011;2719;53.624;9.786;2023-02-28T03:17:09;7.73;;;1.23;;
5391;SDS011;2719;53.624;9.786;2023-02-28T03:20:01;2.30;;;1.10;;
5391;SDS011;2719;53.624;9.786;2023-02-28T03:22:45;4.10;;;1.10;;
5391;SDS011;2719;53.624;9.786;2023-02-28T03:25:19;2.73;;;1.23;;
5391;SDS011;2719;53.624;9.786;2023-02-28T03:27:49;10.60;;;1.93;;
5391;SDS011;2719;53.624;9.786;2023-02-28T03:30:24;3.57;;;1.30;;
5391;SDS011;2719;53.624;9.786;2023-02-28T03:32:56;3.63;;;1.03;;
5391;SDS011;2719;53.624;9.786;2023-02-28T03:35:32;8.80;;;1.57;;
5391;SDS011;2719;53.624;9.786;2023-02-28T03:38:03;2.10;;;0.90;;
5391;SDS011;2719;53.624;9.786;2023-02-28T03:40:38;8.63;;;1.30;;
5391;SDS011;2719;53.624;9.786;2023-02-28T03:43:09;4.07;;;1.00;;
5391;SDS011;2719;53.624;9.786;2023-02-28T03:45:39;2.43;;;0.97;;
5391;SDS011;2719;53.624;9.786;2023-02-28T03:48:08;3.37;;;1.10;;
5391;SDS011;2719;53.624;9.786;2023-02-28T03:50:41;1.57;;;1.00;;
5391;SDS011;2719;53.624;9.786;2023-02-28T03:53:10;6.20;;;1.70;;
5391;SDS011;2719;53.624;9.786;2023-02-28T03:55:42;5.13;;;1.87;;
5391;SDS011;2719;53.624;9.786;2023-02-28T03:58:13;8.67;;;1.37;;
5391;SDS011;2719;53.624;9.786;2023-02-28T04:00:48;9.43;;;2.07;;
5391;SDS011;2719;53.624;9.786;2023-02-28T04:03:18;5.17;;;1.37;;
5391;SDS011;2719;53.624;9.786;2023-02-28T04:05:50;3.30;;;1.07;;
5391;SDS011;2719;53.624;9.786;2023-02-28T04:08:19;8.20;;;1.13;;
5391;SDS011;2719;53.624;9.786;2023-02-28T04:10:48;1.20;;;0.63;;
5391;SDS011;2719;53.624;9.786;2023-02-28T04:13:19;5.13;;;1.10;;
5391;SDS011;2719;53.624;9.786;2023-02-28T04:15:46;4.10;;;1.20;;
5391;SDS011;2719;53.624;9.786;2023-02-28T04:18:12;7.43;;;2.03;;
5391;SDS011;2719;53.624;9.786;2023-02-28T04:20:39;6.03;;;1.57;;
5391;SDS011;2719;53.624;9.786;2023-02-28T04:23:07;5.17;;;1.50;;
5391;SDS011;2719;53.624;9.786;2023-02-28T04:25:33;4.37;;;1.60;;
5391;SDS011;2719;53.624;9.786;2023-02-28T04:28:00;2.63;;;1.53;;
5391;SDS011;2719;53.624;9.786;2023-02-28T04:30:27;9.20;;;1.97;;
5391;SDS011;2719;53.624;9.786;2023-02-28T04:32:54;2.00;;;1.37;;
5391;SDS011;2719;53.624;9.786;2023-02-28T04:35:21;4.43;;;2.03;;
5391;SDS011;2719;53.624;9.786;2023-02-28T04:37:48;5.83;;;1.87;;
5391;SDS011;2719;53.624;9.786;2023-02-28T04:40:16;4.67;;;1.33;;
5391;SDS011;2719;53.624;9.786;2023-02-28T04:42:42;6.93;;;2.10;;
5391;SDS011;2719;53.624;9.786;2023-02-28T04:45:09;6.77;;;1.83;;
5391;SDS011;2719;53.624;9.786;2023-02-28T04:47:36;2.50;;;1.37;;
5391;SDS011;2719;53.624;9.786;2023-02-28T04:50:03;3.47;;;1.23;;
5391;SDS011;2719;53.624;9.786;2023-02-28T04:52:30;5.40;;;1.23;;
5391;SDS011;2719;53.624;9.786;2023-02-28T04:54:57;2.57;;;1.30;;
5391;SDS011;2719;53.624;9.786;2023-02-28T04:57:25;4.03;;;1.57;;
5391;SDS011;2719;53.624;9.786;2023-02-28T04:59:51;5.97;;;1.37;;
5391;SDS011;2719;53.624;9.786;2023-02-28T05:02:18;8.30;;;1.40;;
5391;SDS011;2719;53.624;9.786;2023-02-28T05:04:46;4.93;;;1.73;;
5391;SDS011;2719;53.624;9.786;2023-02-28T05:07:12;4.30;;;1.30;;
5391;SDS011;2719;53.624;9.786;2023-02-28T05:09:39;2.43;;;0.90;;
5391;SDS011;2719;53.624;9.786;2023-02-28T05:12:06;4.80;;;0.93;;
5391;SDS011;2719;53.624;9.786;2023-02-28T05:14:34;4.63;;;0.90;;
5391;SDS011;2719;53.624;9.786;2023-02-28T05:17:01;5.03;;;1.00;;
5391;SDS011;2719;53.624;9.786;2023-02-28T05:19:28;4.23;;;1.20;;
5391;SDS011;2719;53.624;9.786;2023-02-28T05:21:54;2.63;;;1.43;;
5391;SDS011;2719;53.624;9.786;2023-02-28T05:24:21;11.20;;;1.27;;
5391;SDS011;2719;53.624;9.786;2023-02-28T05:26:49;2.50;;;0.87;;
5391;SDS011;2719;53.624;9.786;2023-02-28T05:29:17;1.97;;;0.80;;
5391;SDS011;2719;53.624;9.786;2023-02-28T05:31:45;6.70;;;1.00;;
5391;SDS011;2719;53.624;9.786;2023-02-28T05:34:12;4.40;;;1.10;;
5391;SDS011;2719;53.624;9.786;2023-02-28T05:36:40;7.63;;;1.27;;
5391;SDS011;2719;53.624;9.786;2023-02-28T05:39:08;6.03;;;1.33;;
5391;SDS011;2719;53.624;9.786;2023-02-28T05:41:37;10.97;;;1.33;;
5391;SDS011;2719;53.624;9.786;2023-02-28T05:44:05;23.73;;;2.03;;
5391;SDS011;2719;53.624;9.786;2023-02-28T05:46:32;2.93;;;1.10;;
5391;SDS011;2719;53.624;9.786;2023-02-28T05:49:00;1.53;;;0.87;;
5391;SDS011;2719;53.624;9.786;2023-02-28T05:51:26;5.93;;;1.27;;
5391;SDS011;2719;53.624;9.786;2023-02-28T05:53:53;12.40;;;2.30;;
5391;SDS011;2719;53.624;9.786;2023-02-28T05:56:20;2.63;;;1.77;;
5391;SDS011;2719;53.624;9.786;2023-02-28T05:58:47;2.40;;;0.80;;
5391;SDS011;2719;53.624;9.786;2023-02-28T06:01:21;3.80;;;1.40;;
5391;SDS011;2719;53.624;9.786;2023-02-28T06:03:49;6.23;;;1.43;;
5391;SDS011;2719;53.624;9.786;2023-02-28T06:06:18;4.03;;;1.50;;
5391;SDS011;2719;53.624;9.786;2023-02-28T06:08:44;2.20;;;1.27;;
5391;SDS011;2719;53.624;9.786;2023-02-28T06:11:11;2.10;;;1.03;;
5391;SDS011;2719;53.624;9.786;2023-02-28T06:13:38;2.50;;;1.00;;
5391;SDS011;2719;53.624;9.786;2023-02-28T06:16:05;1.60;;;0.87;;
5391;SDS011;2719;53.624;9.786;2023-02-28T06:18:32;6.20;;;2.30;;
5391;SDS011;2719;53.624;9.786;2023-02-28T06:20:59;4.37;;;0.60;;
5391;SDS011;2719;53.624;9.786;2023-02-28T06:23:27;2.23;;;1.33;;
5391;SDS011;2719;53.624;9.786;2023-02-28T06:25:54;1.23;;;0.80;;
5391;SDS011;2719;53.624;9.786;2023-02-28T06:28:23;5.20;;;1.37;;
5391;SDS011;2719;53.624;9.786;2023-02-28T06:30:50;4.50;;;1.47;;
5391;SDS011;2719;53.624;9.786;2023-02-28T06:33:16;2.07;;;1.00;;
5391;SDS011;2719;53.624;9.786;2023-02-28T06:35:43;3.03;;;1.37;;
5391;SDS011;2719;53.624;9.786;2023-02-28T06:38:12;6.20;;;1.10;;
5391;SDS011;2719;53.624;9.786;2023-02-28T06:40:40;4.20;;;1.20;;
5391;SDS011;2719;53.624;9.786;2023-02-28T06:43:06;3.90;;;1.50;;
5391;SDS011;2719;53.624;9.786;2023-02-28T06:45:33;1.80;;;1.20;;
5391;SDS011;2719;53.624;9.786;2023-02-28T06:47:59;4.50;;;1.30;;
5391;SDS011;2719;53.624;9.786;2023-02-28T06:50:26;1.40;;;1.00;;
5391;SDS011;2719;53.624;9.786;2023-02-28T06:52:54;3.37;;;1.00;;
5391;SDS011;2719;53.624;9.786;2023-02-28T06:55:21;4.93;;;1.30;;
5391;SDS011;2719;53.624;9.786;2023-02-28T06:57:49;2.83;;;0.97;;
5391;SDS011;2719;53.624;9.786;2023-02-28T07:00:16;3.87;;;1.00;;
5391;SDS011;2719;53.624;9.786;2023-02-28T07:02:43;8.73;;;1.50;;
5391;SDS011;2719;53.624;9.786;2023-02-28T07:05:10;8.70;;;1.20;;
5391;SDS011;2719;53.624;9.786;2023-02-28T07:07:37;7.17;;;0.93;;
5391;SDS011;2719;53.624;9.786;2023-02-28T07:10:08;3.30;;;1.00;;
5391;SDS011;2719;53.624;9.786;2023-02-28T07:12:36;4.57;;;0.80;;
5391;SDS011;2719;53.624;9.786;2023-02-28T07:15:04;4.20;;;1.00;;
5391;SDS011;2719;53.624;9.786;2023-02-28T07:17:32;6.30;;;1.13;;
5391;SDS011;2719;53.624;9.786;2023-02-28T07:19:58;6.00;;;2.00;;
5391;SDS011;2719;53.624;9.786;2023-02-28T07:22:25;3.77;;;1.13;;
5391;SDS011;2719;53.624;9.786;2023-02-28T07:24:53;4.23;;;1.10;;
5391;SDS011;2719;53.624;9.786;2023-02-28T07:27:20;2.33;;;1.17;;
5391;SDS011;2719;53.624;9.786;2023-02-28T07:29:50;3.30;;;1.77;;
5391;SDS011;2719;53.624;9.786;2023-02-28T07:32:19;1.80;;;0.90;;
5391;SDS011;2719;53.624;9.786;2023-02-28T07:34:46;5.20;;;1.30;;
5391;SDS011;2719;53.624;9.786;2023-02-28T07:37:13;4.87;;;1.57;;
5391;SDS011;2719;53.624;9.786;2023-02-28T07:39:40;2.60;;;1.00;;
5391;SDS011;2719;53.624;9.786;2023-02-28T07:42:08;5.63;;;1.03;;
5391;SDS011;2719;53.624;9.786;2023-02-28T07:44:37;8.70;;;1.13;;
5391;SDS011;2719;53.624;9.786;2023-02-28T07:47:05;2.30;;;0.80;;
5391;SDS011;2719;53.624;9.786;2023-02-28T07:49:34;1.80;;;0.80;;
5391;SDS011;2719;53.624;9.786;2023-02-28T07:52:01;6.50;;;1.57;;
5391;SDS011;2719;53.624;9.786;2023-02-28T07:54:28;1.97;;;0.90;;
5391;SDS011;2719;53.624;9.786;2023-02-28T07:56:55;8.93;;;1.43;;
5391;SDS011;2719;53.624;9.786;2023-02-28T07:59:22;2.40;;;0.97;;
5391;SDS011;2719;53.624;9.786;2023-02-28T08:01:48;2.17;;;0.83;;
5391;SDS011;2719;53.624;9.786;2023-02-28T08:04:15;1.87;;;0.90;;
5391;SDS011;2719;53.624;9.786;2023-02-28T08:06:43;2.47;;;1.10;;
5391;SDS011;2719;53.624;9.786;2023-02-28T08:09:10;3.97;;;0.90;;
5391;SDS011;2719;53.624;9.786;2023-02-28T08:11:37;2.10;;;0.83;;
5391;SDS011;2719;53.624;9.786;2023-02-28T08:14:03;5.70;;;1.00;;
5391;SDS011;2719;53.624;9.786;2023-02-28T08:16:30;6.53;;;0.67;;
5391;SDS011;2719;53.624;9.786;2023-02-28T08:18:57;4.60;;;1.20;;
5391;SDS011;2719;53.624;9.786;2023-02-28T08:21:24;1.10;;;0.70;;
5391;SDS011;2719;53.624;9.786;2023-02-28T08:23:52;1.17;;;0.70;;
5391;SDS011;2719;53.624;9.786;2023-02-28T08:26:19;1.50;;;0.70;;
5391;SDS011;2719;53.624;9.786;2023-02-28T08:28:46;15.53;;;0.80;;
5391;SDS011;2719;53.624;9.786;2023-02-28T08:31:13;2.30;;;0.70;;
5391;SDS011;2719;53.624;9.786;2023-02-28T08:33:42;3.03;;;0.70;;
5391;SDS011;2719;53.624;9.786;2023-02-28T08:36:09;1.10;;;0.57;;
5391;SDS011;2719;53.624;9.786;2023-02-28T08:38:37;1.53;;;0.80;;
5391;SDS011;2719;53.624;9.786;2023-02-28T08:41:06;1.13;;;0.67;;
5391;SDS011;2719;53.624;9.786;2023-02-28T08:43:35;3.37;;;0.80;;
5391;SDS011;2719;53.624;9.786;2023-02-28T08:46:03;7.70;;;0.70;;
5391;SDS011;2719;53.624;9.786;2023-02-28T08:48:31;3.83;;;0.80;;
5391;SDS011;2719;53.624;9.786;2023-02-28T08:51:00;2.80;;;1.00;;
5391;SDS011;2719;53.624;9.786;2023-02-28T08:53:29;6.60;;;0.87;;
5391;SDS011;2719;53.624;9.786;2023-02-28T08:55:56;2.37;;;0.70;;
5391;SDS011;2719;53.624;9.786;2023-02-28T08:58:25;1.20;;;0.60;;
5391;SDS011;2719;53.624;9.786;2023-02-28T09:00:52;1.80;;;0.70;;
5391;SDS011;2719;53.624;9.786;2023-02-28T09:03:20;3.13;;;0.50;;
5391;SDS011;2719;53.624;9.786;2023-02-28T09:05:54;2.00;;;0.50;;
5391;SDS011;2719;53.624;9.786;2023-02-28T09:08:22;5.60;;;0.60;;
5391;SDS011;2719;53.624;9.786;2023-02-28T09:10:49;3.90;;;0.80;;
5391;SDS011;2719;53.624;9.786;2023-02-28T09:13:16;1.90;;;0.50;;
5391;SDS011;2719;53.624;9.786;2023-02-28T09:15:44;1.10;;;0.60;;
5391;SDS011;2719;53.624;9.786;2023-02-28T09:18:11;1.13;;;0.60;;
5391;SDS011;2719;53.624;9.786;2023-02-28T09:20:38;2.03;;;0.50;;
5391;SDS011;2719;53.624;9.786;2023-02-28T09:23:05;1.00;;;0.50;;
5391;SDS011;2719;53.624;9.786;2023-02-28T09:25:32;2.50;;;0.50;;
5391;SDS011;2719;53.624;9.786;2023-02-28T09:28:00;1.57;;;0.40;;
5391;SDS011;2719;53.624;9.786;2023-02-28T09:30:26;1.50;;;0.60;;
5391;SDS011;2719;53.624;9.786;2023-02-28T09:32:54;2.20;;;0.50;;
5391;SDS011;2719;53.624;9.786;2023-02-28T09:35:22;0.80;;;0.40;;
5391;SDS011;2719;53.624;9.786;2023-02-28T09:37:50;1.93;;;0.40;;
5391;SDS011;2719;53.624;9.786;2023-02-28T09:40:18;2.30;;;0.40;;
5391;SDS011;2719;53.624;9.786;2023-02-28T09:42:47;0.73;;;0.40;;
5391;SDS011;2719;53.624;9.786;2023-02-28T09:45:18;0.80;;;0.50;;
5391;SDS011;2719;53.624;9.786;2023-02-28T09:47:48;0.70;;;0.40;;
5391;SDS011;2719;53.624;9.786;2023-02-28T09:50:23;2.60;;;0.60;;
5391;SDS011;2719;53.624;9.786;2023-02-28T09:52:58;1.23;;;0.50;;
5391;SDS011;2719;53.624;9.786;2023-02-28T09:55:27;0.83;;;0.40;;
5391;SDS011;2719;53.624;9.786;2023-02-28T09:57:56;0.87;;;0.50;;
5391;SDS011;2719;53.624;9.786;2023-02-28T10:00:27;2.80;;;0.80;;
5391;SDS011;2719;53.624;9.786;2023-02-28T10:03:04;3.87;;;1.30;;
5391;SDS011;2719;53.624;9.786;2023-02-28T10:05:43;5.80;;;1.30;;
5391;SDS011;2719;53.624;9.786;2023-02-28T10:08:19;1.83;;;0.97;;
5391;SDS011;2719;53.624;9.786;2023-02-28T10:10:51;5.43;;;0.70;;
5391;SDS011;2719;53.624;9.786;2023-02-28T10:13:23;1.80;;;0.50;;
5391;SDS011;2719;53.624;9.786;2023-02-28T10:15:52;0.77;;;0.50;;
5391;SDS011;2719;53.624;9.786;2023-02-28T10:18:24;1.10;;;0.50;;
5391;SDS011;2719;53.624;9.786;2023-02-28T10:20:54;1.07;;;0.80;;
5391;SDS011;2719;53.624;9.786;2023-02-28T10:23:23;0.97;;;0.50;;
5391;SDS011;2719;53.624;9.786;2023-02-28T10:25:54;0.80;;;0.60;;
5391;SDS011;2719;53.624;9.786;2023-02-28T10:28:24;2.23;;;0.50;;
5391;SDS011;2719;53.624;9.786;2023-02-28T10:30:52;0.80;;;0.50;;
5391;SDS011;2719;53.624;9.786;2023-02-28T10:33:21;2.30;;;0.53;;
5391;SDS011;2719;53.624;9.786;2023-02-28T10:35:49;1.13;;;0.50;;
5391;SDS011;2719;53.624;9.786;2023-02-28T10:38:19;0.97;;;0.50;;
5391;SDS011;2719;53.624;9.786;2023-02-28T10:40:47;1.10;;;0.80;;
5391;SDS011;2719;53.624;9.786;2023-02-28T10:43:18;0.80;;;0.50;;
5391;SDS011;2719;53.624;9.786;2023-02-28T10:45:54;0.90;;;0.57;;
5391;SDS011;2719;53.624;9.786;2023-02-28T10:48:32;3.57;;;0.60;;
5391;SDS011;2719;53.624;9.786;2023-02-28T10:51:00;4.30;;;0.60;;
5391;SDS011;2719;53.624;9.786;2023-02-28T10:53:32;3.80;;;0.70;;
5391;SDS011;2719;53.624;9.786;2023-02-28T10:56:02;6.10;;;0.70;;
5391;SDS011;2719;53.624;9.786;2023-02-28T10:58:33;3.33;;;0.60;;
5391;SDS011;2719;53.624;9.786;2023-02-28T11:01:13;8.73;;;0.70;;
5391;SDS011;2719;53.624;9.786;2023-02-28T11:03:41;2.63;;;0.70;;
5391;SDS011;2719;53.624;9.786;2023-02-28T11:06:08;3.23;;;0.80;;
5391;SDS011;2719;53.624;9.786;2023-02-28T11:08:47;2.30;;;0.67;;
5391;SDS011;2719;53.624;9.786;2023-02-28T11:11:15;1.13;;;0.70;;
5391;SDS011;2719;53.624;9.786;2023-02-28T11:13:43;6.63;;;1.00;;
5391;SDS011;2719;53.624;9.786;2023-02-28T11:16:12;2.40;;;0.60;;
5391;SDS011;2719;53.624;9.786;2023-02-28T11:18:41;1.77;;;0.60;;
5391;SDS011;2719;53.624;9.786;2023-02-28T11:21:15;1.17;;;0.50;;
5391;SDS011;2719;53.624;9.786;2023-02-28T11:23:44;0.70;;;0.50;;
5391;SDS011;2719;53.624;9.786;2023-02-28T11:26:14;1.97;;;0.60;;
5391;SDS011;2719;53.624;9.786;2023-02-28T11:28:42;4.10;;;0.80;;
5391;SDS011;2719;53.624;9.786;2023-02-28T11:31:16;1.13;;;0.97;;
5391;SDS011;2719;53.624;9.786;2023-02-28T11:33:45;5.20;;;0.60;;
5391;SDS011;2719;53.624;9.786;2023-02-28T11:36:16;3.00;;;0.80;;
5391;SDS011;2719;53.624;9.786;2023-02-28T11:38:47;2.60;;;1.10;;
5391;SDS011;2719;53.624;9.786;2023-02-28T11:44:20;3.10;;;0.80;;
5391;SDS011;2719;53.624;9.786;2023-02-28T11:46:52;5.87;;;0.70;;
5391;SDS011;2719;53.624;9.786;2023-02-28T11:49:32;1.20;;;0.60;;
5391;SDS011;2719;53.624;9.786;2023-02-28T11:52:10;1.33;;;0.73;;
5391;SDS011;2719;53.624;9.786;2023-02-28T11:55:00;4.27;;;0.90;;
5391;SDS011;2719;53.624;9.786;2023-02-28T11:57:48;1.77;;;0.70;;
5391;SDS011;2719;53.624;9.786;2023-02-28T12:00:35;2.13;;;0.70;;
5391;SDS011;2719;53.624;9.786;2023-02-28T12:03:19;4.83;;;0.60;;
5391;SDS011;2719;53.624;9.786;2023-02-28T12:05:55;1.80;;;0.60;;
5391;SDS011;2719;53.624;9.786;2023-02-28T12:08:31;1.47;;;0.70;;
5391;SDS011;2719;53.624;9.786;2023-02-28T12:11:19;1.43;;;0.60;;
5391;SDS011;2719;53.624;9.786;2023-02-28T12:17:00;3.13;;;0.93;;
5391;SDS011;2719;53.624;9.786;2023-02-28T12:19:34;3.53;;;0.87;;
5391;SDS011;2719;53.624;9.786;2023-02-28T12:22:21;1.10;;;0.60;;
5391;SDS011;2719;53.624;9.786;2023-02-28T12:27:59;6.40;;;1.00;;
5391;SDS011;2719;53.624;9.786;2023-02-28T12:30:27;1.73;;;0.73;;
5391;SDS011;2719;53.624;9.786;2023-02-28T12:32:56;2.70;;;0.93;;
5391;SDS011;2719;53.624;9.786;2023-02-28T12:35:32;2.47;;;0.57;;
5391;SDS011;2719;53.624;9.786;2023-02-28T12:38:04;3.30;;;0.70;;
5391;SDS011;2719;53.624;9.786;2023-02-28T12:40:41;1.10;;;0.67;;
5391;SDS011;2719;53.624;9.786;2023-02-28T12:43:13;0.90;;;0.60;;
5391;SDS011;2719;53.624;9.786;2023-02-28T12:45:43;1.83;;;0.57;;
5391;SDS011;2719;53.624;9.786;2023-02-28T12:48:14;1.93;;;1.83;;
5391;SDS011;2719;53.624;9.786;2023-02-28T12:50:44;1.80;;;0.90;;
5391;SDS011;2719;53.624;9.786;2023-02-28T12:53:13;3.47;;;0.90;;
5391;SDS011;2719;53.624;9.786;2023-02-28T12:55:45;2.60;;;0.80;;
5391;SDS011;2719;53.624;9.786;2023-02-28T12:58:19;0.80;;;0.57;;
5391;SDS011;2719;53.624;9.786;2023-02-28T13:00:58;2.93;;;0.63;;
5391;SDS011;2719;53.624;9.786;2023-02-28T13:03:44;1.83;;;0.83;;
5391;SDS011;2719;53.624;9.786;2023-02-28T13:06:39;1.87;;;0.60;;
5391;SDS011;2719;53.624;9.786;2023-02-28T13:09:15;2.90;;;0.80;;
5391;SDS011;2719;53.624;9.786;2023-02-28T13:11:44;1.77;;;0.70;;
5391;SDS011;2719;53.624;9.786;2023-02-28T13:14:22;0.90;;;0.50;;
5391;SDS011;2719;53.624;9.786;2023-02-28T13:16:54;1.67;;;0.50;;
5391;SDS011;2719;53.624;9.786;2023-02-28T13:19:29;1.30;;;0.60;;
5391;SDS011;2719;53.624;9.786;2023-02-28T13:21:58;0.93;;;0.63;;
5391;SDS011;2719;53.624;9.786;2023-02-28T13:30:02;2.30;;;0.80;;
5391;SDS011;2719;53.624;9.786;2023-02-28T13:33:23;2.40;;;0.80;;
5391;SDS011;2719;53.624;9.786;2023-02-28T13:36:08;3.30;;;0.80;;
5391;SDS011;2719;53.624;9.786;2023-02-28T13:38:38;4.43;;;0.80;;
5391;SDS011;2719;53.624;9.786;2023-02-28T13:44:07;1.30;;;0.63;;
5391;SDS011;2719;53.624;9.786;2023-02-28T13:47:13;1.73;;;0.70;;
5391;SDS011;2719;53.624;9.786;2023-02-28T13:49:42;2.40;;;0.90;;
5391;SDS011;2719;53.624;9.786;2023-02-28T13:52:10;2.60;;;0.70;;
5391;SDS011;2719;53.624;9.786;2023-02-28T13:54:45;2.10;;;0.70;;
5391;SDS011;2719;53.624;9.786;2023-02-28T13:57:33;1.30;;;0.70;;
5391;SDS011;2719;53.624;9.786;2023-02-28T14:00:16;7.23;;;0.70;;
5391;SDS011;2719;53.624;9.786;2023-02-28T14:02:59;1.27;;;0.70;;
5391;SDS011;2719;53.624;9.786;2023-02-28T14:05:34;1.27;;;0.80;;
5391;SDS011;2719;53.624;9.786;2023-02-28T14:08:04;3.63;;;1.00;;
5391;SDS011;2719;53.624;9.786;2023-02-28T14:10:33;1.57;;;0.70;;
5391;SDS011;2719;53.624;9.786;2023-02-28T14:13:10;4.53;;;0.90;;
5391;SDS011;2719;53.624;9.786;2023-02-28T14:15:40;0.80;;;0.53;;
5391;SDS011;2719;53.624;9.786;2023-02-28T14:18:21;2.00;;;0.80;;
5391;SDS011;2719;53.624;9.786;2023-02-28T14:20:52;3.33;;;0.83;;
5391;SDS011;2719;53.624;9.786;2023-02-28T14:23:32;1.73;;;0.60;;
5391;SDS011;2719;53.624;9.786;2023-02-28T14:26:12;0.80;;;0.67;;
5391;SDS011;2719;53.624;9.786;2023-02-28T14:28:49;10.63;;;0.60;;
5391;SDS011;2719;53.624;9.786;2023-02-28T14:31:28;1.53;;;0.93;;
5391;SDS011;2719;53.624;9.786;2023-02-28T14:34:04;1.53;;;0.60;;
5391;SDS011;2719;53.624;9.786;2023-02-28T14:36:43;2.50;;;0.67;;
5391;SDS011;2719;53.624;9.786;2023-02-28T14:39:11;0.90;;;0.80;;
5391;SDS011;2719;53.624;9.786;2023-02-28T14:41:40;1.07;;;0.60;;
5391;SDS011;2719;53.624;9.786;2023-02-28T14:44:15;1.00;;;0.70;;
5391;SDS011;2719;53.624;9.786;2023-02-28T14:46:43;0.73;;;0.60;;
5391;SDS011;2719;53.624;9.786;2023-02-28T14:49:15;4.63;;;0.80;;
5391;SDS011;2719;53.624;9.786;2023-02-28T14:51:45;6.27;;;0.90;;
5391;SDS011;2719;53.624;9.786;2023-02-28T14:54:13;2.40;;;0.70;;
5391;SDS011;2719;53.624;9.786;2023-02-28T14:56:42;0.80;;;0.50;;
5391;SDS011;2719;53.624;9.786;2023-02-28T14:59:22;1.83;;;0.60;;
5391;SDS011;2719;53.624;9.786;2023-02-28T15:01:52;1.03;;;0.67;;
5391;SDS011;2719;53.624;9.786;2023-02-28T15:04:34;2.33;;;0.80;;
5391;SDS011;2719;53.624;9.786;2023-02-28T15:07:07;1.97;;;0.70;;
5391;SDS011;2719;53.624;9.786;2023-02-28T15:09:35;6.07;;;0.80;;
5391;SDS011;2719;53.624;9.786;2023-02-28T15:12:01;4.03;;;0.60;;
5391;SDS011;2719;53.624;9.786;2023-02-28T15:14:29;1.20;;;0.50;;
5391;SDS011;2719;53.624;9.786;2023-02-28T15:16:56;2.40;;;0.50;;
5391;SDS011;2719;53.624;9.786;2023-02-28T15:19:27;2.00;;;0.90;;
5391;SDS011;2719;53.624;9.786;2023-02-28T15:21:59;1.73;;;0.67;;
5391;SDS011;2719;53.624;9.786;2023-02-28T15:24:31;0.90;;;0.60;;
5391;SDS011;2719;53.624;9.786;2023-02-28T15:27:04;1.47;;;0.60;;
5391;SDS011;2719;53.624;9.786;2023-02-28T15:29:34;2.40;;;0.50;;
5391;SDS011;2719;53.624;9.786;2023-02-28T15:32:17;4.70;;;0.97;;
5391;SDS011;2719;53.624;9.786;2023-02-28T15:34:50;1.23;;;0.70;;
5391;SDS011;2719;53.624;9.786;2023-02-28T15:37:33;1.83;;;0.60;;
5391;SDS011;2719;53.624;9.786;2023-02-28T15:40:10;1.53;;;0.97;;
5391;SDS011;2719;53.624;9.786;2023-02-28T15:42:40;3.80;;;0.70;;
5391;SDS011;2719;53.624;9.786;2023-02-28T15:47:53;2.97;;;0.60;;
5391;SDS011;2719;53.624;9.786;2023-02-28T15:50:21;1.87;;;0.93;;
5391;SDS011;2719;53.624;9.786;2023-02-28T15:52:49;3.20;;;1.53;;
5391;SDS011;2719;53.624;9.786;2023-02-28T15:55:17;1.43;;;1.00;;
5391;SDS011;2719;53.624;9.786;2023-02-28T15:57:47;4.20;;;1.10;;
5391;SDS011;2719;53.624;9.786;2023-02-28T16:00:19;1.13;;;0.60;;
5391;SDS011;2719;53.624;9.786;2023-02-28T16:02:48;1.37;;;0.60;;
5391;SDS011;2719;53.624;9.786;2023-02-28T16:05:19;1.90;;;0.90;;